sensor_id;sensor_type;location;lat;lon;timestamp;temperature;humidity
71304;DHT22;59091;47.446;19.148;2023-05-18T00:01:47;14.39;78.35
71304;DHT22;59091;47.446;19.148;2023-05-18T00:04:12;14.39;78.60
71304;DHT22;59091;47.446;19.148;2023-05-18T00:06:38;14.22;80.00
71304;DHT22;59091;47.446;19.148;2023-05-18T00:09:03;14.11;80.88
71304;DHT22;59091;47.446;19.148;2023-05-18T00:11:29;14.18;80.82
71304;DHT22;59091;47.446;19.148;2023-05-18T00:13:55;14.06;81.36
71304;DHT22;59091;47.446;19.148;2023-05-18T00:16:20;14.12;81.31
71304;DHT22;59091;47.446;19.148;2023-05-18T00:18:45;14.15;81.37
71304;DHT22;59091;47.446;19.148;2023-05-18T00:21:11;14.06;81.75
71304;DHT22;59091;47.446;19.148;2023-05-18T00:23:37;14.04;82.04
71304;DHT22;59091;47.446;19.148;2023-05-18T00:26:03;13.95;82.69
71304;DHT22;59091;47.446;19.148;2023-05-18T00:28:29;13.95;82.90
71304;DHT22;59091;47.446;19.148;2023-05-18T00:30:55;14.02;82.90
71304;DHT22;59091;47.446;19.148;2023-05-18T00:33:21;13.99;82.78
71304;DHT22;59091;47.446;19.148;2023-05-18T00:35:46;14.06;82.50
71304;DHT22;59091;47.446;19.148;2023-05-18T00:38:12;14.04;82.86
71304;DHT22;59091;47.446;19.148;2023-05-18T00:40:39;14.04;82.93
71304;DHT22;59091;47.446;19.148;2023-05-18T00:43:05;14.05;82.92
71304;DHT22;59091;47.446;19.148;2023-05-18T00:45:31;13.99;83.33
71304;DHT22;59091;47.446;19.148;2023-05-18T00:47:56;14.09;82.88
71304;DHT22;59091;47.446;19.148;2023-05-18T00:50:21;13.94;83.30
71304;DHT22;59091;47.446;19.148;2023-05-18T00:52:47;13.83;83.63
71304;DHT22;59091;47.446;19.148;2023-05-18T00:55:12;13.89;83.79
71304;DHT22;59091;47.446;19.148;2023-05-18T00:57:41;13.99;83.37
71304;DHT22;59091;47.446;19.148;2023-05-18T01:00:09;13.91;83.56
71304;DHT22;59091;47.446;19.148;2023-05-18T01:02:40;13.89;83.56
71304;DHT22;59091;47.446;19.148;2023-05-18T01:05:10;13.92;83.67
71304;DHT22;59091;47.446;19.148;2023-05-18T01:07:40;13.97;83.77
71304;DHT22;59091;47.446;19.148;2023-05-18T01:10:10;13.92;83.63
71304;DHT22;59091;47.446;19.148;2023-05-18T01:12:44;13.88;83.53
71304;DHT22;59091;47.446;19.148;2023-05-18T01:15:14;13.88;83.97
71304;DHT22;59091;47.446;19.148;2023-05-18T01:20:31;13.70;84.67
71304;DHT22;59091;47.446;19.148;2023-05-18T01:28:21;13.75;84.53
71304;DHT22;59091;47.446;19.148;2023-05-18T01:30:51;13.72;84.69
71304;DHT22;59091;47.446;19.148;2023-05-18T01:33:17;13.65;84.66
71304;DHT22;59091;47.446;19.148;2023-05-18T01:35:42;13.71;84.69
71304;DHT22;59091;47.446;19.148;2023-05-18T01:38:14;13.70;84.74
71304;DHT22;59091;47.446;19.148;2023-05-18T01:43:31;13.71;84.37
71304;DHT22;59091;47.446;19.148;2023-05-18T01:46:00;13.60;84.94
71304;DHT22;59091;47.446;19.148;2023-05-18T01:48:29;13.58;85.07
71304;DHT22;59091;47.446;19.148;2023-05-18T01:50:57;13.68;84.60
71304;DHT22;59091;47.446;19.148;2023-05-18T01:53:40;13.64;84.53
71304;DHT22;59091;47.446;19.148;2023-05-18T01:56:07;13.62;84.73
71304;DHT22;59091;47.446;19.148;2023-05-18T01:58:36;13.61;84.68
71304;DHT22;59091;47.446;19.148;2023-05-18T02:01:02;13.68;84.39
71304;DHT22;59091;47.446;19.148;2023-05-18T02:03:30;13.60;84.67
71304;DHT22;59091;47.446;19.148;2023-05-18T02:05:56;13.68;84.37
71304;DHT22;59091;47.446;19.148;2023-05-18T02:08:21;13.64;84.60
71304;DHT22;59091;47.446;19.148;2023-05-18T02:10:47;13.68;84.44
71304;DHT22;59091;47.446;19.148;2023-05-18T02:13:12;13.78;84.00
71304;DHT22;59091;47.446;19.148;2023-05-18T02:15:37;13.70;84.52
71304;DHT22;59091;47.446;19.148;2023-05-18T02:18:03;13.62;84.69
71304;DHT22;59091;47.446;19.148;2023-05-18T02:20:29;13.64;84.62
71304;DHT22;59091;47.446;19.148;2023-05-18T02:22:57;13.74;84.51
71304;DHT22;59091;47.446;19.148;2023-05-18T02:25:23;13.60;84.96
71304;DHT22;59091;47.446;19.148;2023-05-18T02:27:49;13.57;85.06
71304;DHT22;59091;47.446;19.148;2023-05-18T02:30:14;13.53;85.25
71304;DHT22;59091;47.446;19.148;2023-05-18T02:32:40;13.62;84.93
71304;DHT22;59091;47.446;19.148;2023-05-18T02:35:07;13.58;84.97
71304;DHT22;59091;47.446;19.148;2023-05-18T02:37:33;13.57;84.99
71304;DHT22;59091;47.446;19.148;2023-05-18T02:40:08;13.62;85.00
71304;DHT22;59091;47.446;19.148;2023-05-18T02:42:34;13.55;85.13
71304;DHT22;59091;47.446;19.148;2023-05-18T02:44:59;13.58;85.04
71304;DHT22;59091;47.446;19.148;2023-05-18T02:47:26;13.60;85.14
71304;DHT22;59091;47.446;19.148;2023-05-18T02:49:52;13.58;85.15
71304;DHT22;59091;47.446;19.148;2023-05-18T02:52:17;13.67;85.08
71304;DHT22;59091;47.446;19.148;2023-05-18T02:54:42;13.67;84.93
71304;DHT22;59091;47.446;19.148;2023-05-18T02:57:08;13.51;85.20
71304;DHT22;59091;47.446;19.148;2023-05-18T02:59:36;13.54;85.02
71304;DHT22;59091;47.446;19.148;2023-05-18T03:02:02;13.48;85.20
71304;DHT22;59091;47.446;19.148;2023-05-18T03:04:27;13.53;85.31
71304;DHT22;59091;47.446;19.148;2023-05-18T03:06:52;13.53;85.13
71304;DHT22;59091;47.446;19.148;2023-05-18T03:09:18;13.62;84.86
71304;DHT22;59091;47.446;19.148;2023-05-18T03:11:44;13.57;84.91
71304;DHT22;59091;47.446;19.148;2023-05-18T03:14:10;13.51;85.06
71304;DHT22;59091;47.446;19.148;2023-05-18T03:16:35;13.64;84.81
71304;DHT22;59091;47.446;19.148;2023-05-18T03:19:02;13.64;84.80
71304;DHT22;59091;47.446;19.148;2023-05-18T03:21:28;13.68;84.53
71304;DHT22;59091;47.446;19.148;2023-05-18T03:24:00;13.51;85.09
71304;DHT22;59091;47.446;19.148;2023-05-18T03:26:27;13.57;84.78
71304;DHT22;59091;47.446;19.148;2023-05-18T03:28:55;13.50;85.13
71304;DHT22;59091;47.446;19.148;2023-05-18T03:31:21;13.54;84.99
71304;DHT22;59091;47.446;19.148;2023-05-18T03:33:47;13.58;84.96
71304;DHT22;59091;47.446;19.148;2023-05-18T03:36:12;13.46;85.63
71304;DHT22;59091;47.446;19.148;2023-05-18T03:38:38;13.46;85.49
71304;DHT22;59091;47.446;19.148;2023-05-18T03:41:03;13.40;85.58
71304;DHT22;59091;47.446;19.148;2023-05-18T03:43:29;13.40;85.75
71304;DHT22;59091;47.446;19.148;2023-05-18T03:45:56;13.44;85.72
71304;DHT22;59091;47.446;19.148;2023-05-18T03:48:23;13.44;85.80
71304;DHT22;59091;47.446;19.148;2023-05-18T03:50:49;13.47;85.60
71304;DHT22;59091;47.446;19.148;2023-05-18T03:53:15;13.41;85.37
71304;DHT22;59091;47.446;19.148;2023-05-18T03:55:43;13.46;85.03
71304;DHT22;59091;47.446;19.148;2023-05-18T03:58:09;13.26;85.51
71304;DHT22;59091;47.446;19.148;2023-05-18T04:00:34;13.21;85.52
71304;DHT22;59091;47.446;19.148;2023-05-18T04:03:00;13.31;85.31
71304;DHT22;59091;47.446;19.148;2023-05-18T04:05:27;13.27;85.54
71304;DHT22;59091;47.446;19.148;2023-05-18T04:07:53;13.28;85.46
71304;DHT22;59091;47.446;19.148;2023-05-18T04:10:22;13.26;85.68
71304;DHT22;59091;47.446;19.148;2023-05-18T04:12:48;13.30;85.48
71304;DHT22;59091;47.446;19.148;2023-05-18T04:15:13;13.34;85.30
71304;DHT22;59091;47.446;19.148;2023-05-18T04:17:39;13.39;85.30
71304;DHT22;59091;47.446;19.148;2023-05-18T04:20:10;13.46;85.27
71304;DHT22;59091;47.446;19.148;2023-05-18T04:22:39;13.34;85.30
71304;DHT22;59091;47.446;19.148;2023-05-18T04:25:08;13.37;85.60
71304;DHT22;59091;47.446;19.148;2023-05-18T04:27:36;13.46;85.37
71304;DHT22;59091;47.446;19.148;2023-05-18T04:30:01;13.34;85.37
71304;DHT22;59091;47.446;19.148;2023-05-18T04:32:27;13.37;85.14
71304;DHT22;59091;47.446;19.148;2023-05-18T04:34:55;13.33;84.94
71304;DHT22;59091;47.446;19.148;2023-05-18T04:37:22;13.40;85.10
71304;DHT22;59091;47.446;19.148;2023-05-18T04:39:48;13.53;84.77
71304;DHT22;59091;47.446;19.148;2023-05-18T04:42:13;13.51;84.75
71304;DHT22;59091;47.446;19.148;2023-05-18T04:44:42;13.47;84.43
71304;DHT22;59091;47.446;19.148;2023-05-18T04:47:08;13.50;85.77
71304;DHT22;59091;47.446;19.148;2023-05-18T04:49:33;13.47;85.28
71304;DHT22;59091;47.446;19.148;2023-05-18T04:51:59;13.34;84.75
71304;DHT22;59091;47.446;19.148;2023-05-18T04:54:26;13.50;84.62
71304;DHT22;59091;47.446;19.148;2023-05-18T04:56:55;13.44;84.70
71304;DHT22;59091;47.446;19.148;2023-05-18T04:59:21;13.48;84.63
71304;DHT22;59091;47.446;19.148;2023-05-18T05:01:51;13.53;84.96
71304;DHT22;59091;47.446;19.148;2023-05-18T05:04:16;13.51;84.97
71304;DHT22;59091;47.446;19.148;2023-05-18T05:06:42;13.51;84.75
71304;DHT22;59091;47.446;19.148;2023-05-18T05:09:07;13.50;84.89
71304;DHT22;59091;47.446;19.148;2023-05-18T05:11:33;13.54;84.71
71304;DHT22;59091;47.446;19.148;2023-05-18T05:14:00;13.55;84.48
71304;DHT22;59091;47.446;19.148;2023-05-18T05:16:26;13.54;84.58
71304;DHT22;59091;47.446;19.148;2023-05-18T05:18:51;13.70;84.35
71304;DHT22;59091;47.446;19.148;2023-05-18T05:21:16;13.72;84.31
71304;DHT22;59091;47.446;19.148;2023-05-18T05:23:42;13.74;84.23
71304;DHT22;59091;47.446;19.148;2023-05-18T05:26:09;13.79;84.08
71304;DHT22;59091;47.446;19.148;2023-05-18T05:28:35;13.85;84.96
71304;DHT22;59091;47.446;19.148;2023-05-18T05:31:01;14.02;84.32
71304;DHT22;59091;47.446;19.148;2023-05-18T05:33:27;13.89;83.35
71304;DHT22;59091;47.446;19.148;2023-05-18T05:35:52;13.86;83.33
71304;DHT22;59091;47.446;19.148;2023-05-18T05:38:18;13.95;83.29
71304;DHT22;59091;47.446;19.148;2023-05-18T05:40:43;14.01;83.05
71304;DHT22;59091;47.446;19.148;2023-05-18T05:43:09;13.88;83.86
71304;DHT22;59091;47.446;19.148;2023-05-18T05:45:34;14.02;83.56
71304;DHT22;59091;47.446;19.148;2023-05-18T05:47:59;13.98;83.37
71304;DHT22;59091;47.446;19.148;2023-05-18T05:50:25;14.08;83.24
71304;DHT22;59091;47.446;19.148;2023-05-18T05:52:52;14.05;83.24
71304;DHT22;59091;47.446;19.148;2023-05-18T05:55:17;14.08;83.02
71304;DHT22;59091;47.446;19.148;2023-05-18T05:57:43;14.15;82.97
71304;DHT22;59091;47.446;19.148;2023-05-18T06:00:10;14.22;82.80
71304;DHT22;59091;47.446;19.148;2023-05-18T06:02:37;14.16;82.78
71304;DHT22;59091;47.446;19.148;2023-05-18T06:05:04;14.09;82.47
71304;DHT22;59091;47.446;19.148;2023-05-18T06:07:30;14.12;82.75
71304;DHT22;59091;47.446;19.148;2023-05-18T06:09:55;14.19;82.40
71304;DHT22;59091;47.446;19.148;2023-05-18T06:12:21;14.26;82.24
71304;DHT22;59091;47.446;19.148;2023-05-18T06:14:46;14.22;82.97
71304;DHT22;59091;47.446;19.148;2023-05-18T06:17:12;14.04;82.42
71304;DHT22;59091;47.446;19.148;2023-05-18T06:19:37;14.11;82.48
71304;DHT22;59091;47.446;19.148;2023-05-18T06:22:02;14.16;82.20
71304;DHT22;59091;47.446;19.148;2023-05-18T06:24:28;14.06;82.26
71304;DHT22;59091;47.446;19.148;2023-05-18T06:26:53;13.99;84.50
71304;DHT22;59091;47.446;19.148;2023-05-18T06:29:19;14.12;82.64
71304;DHT22;59091;47.446;19.148;2023-05-18T06:31:45;14.21;82.24
71304;DHT22;59091;47.446;19.148;2023-05-18T06:34:11;14.23;82.06
71304;DHT22;59091;47.446;19.148;2023-05-18T06:36:36;14.19;82.04
71304;DHT22;59091;47.446;19.148;2023-05-18T06:39:03;14.22;82.00
71304;DHT22;59091;47.446;19.148;2023-05-18T06:41:29;13.89;82.81
71304;DHT22;59091;47.446;19.148;2023-05-18T06:43:55;13.97;82.49
71304;DHT22;59091;47.446;19.148;2023-05-18T06:46:24;13.88;83.39
71304;DHT22;59091;47.446;19.148;2023-05-18T06:48:51;13.81;83.21
71304;DHT22;59091;47.446;19.148;2023-05-18T06:51:16;13.91;83.00
71304;DHT22;59091;47.446;19.148;2023-05-18T06:53:42;13.98;83.22
71304;DHT22;59091;47.446;19.148;2023-05-18T06:56:07;14.04;83.30
71304;DHT22;59091;47.446;19.148;2023-05-18T06:58:36;14.08;83.05
71304;DHT22;59091;47.446;19.148;2023-05-18T07:01:01;13.94;83.10
71304;DHT22;59091;47.446;19.148;2023-05-18T07:03:26;13.89;83.46
71304;DHT22;59091;47.446;19.148;2023-05-18T07:05:52;14.06;82.92
71304;DHT22;59091;47.446;19.148;2023-05-18T07:08:18;14.11;82.94
71304;DHT22;59091;47.446;19.148;2023-05-18T07:10:44;14.05;82.58
71304;DHT22;59091;47.446;19.148;2023-05-18T07:13:09;14.21;82.47
71304;DHT22;59091;47.446;19.148;2023-05-18T07:15:35;14.22;82.50
71304;DHT22;59091;47.446;19.148;2023-05-18T07:18:00;14.15;82.36
71304;DHT22;59091;47.446;19.148;2023-05-18T07:20:26;14.18;82.51
71304;DHT22;59091;47.446;19.148;2023-05-18T07:22:51;14.15;83.00
71304;DHT22;59091;47.446;19.148;2023-05-18T07:25:19;14.28;82.43
71304;DHT22;59091;47.446;19.148;2023-05-18T07:27:45;14.21;82.73
71304;DHT22;59091;47.446;19.148;2023-05-18T07:30:10;14.25;82.53
71304;DHT22;59091;47.446;19.148;2023-05-18T07:32:36;14.19;82.73
71304;DHT22;59091;47.446;19.148;2023-05-18T07:35:01;14.30;83.25
71304;DHT22;59091;47.446;19.148;2023-05-18T07:37:27;14.30;83.35
71304;DHT22;59091;47.446;19.148;2023-05-18T07:39:52;14.34;82.53
71304;DHT22;59091;47.446;19.148;2023-05-18T07:42:18;14.43;82.64
71304;DHT22;59091;47.446;19.148;2023-05-18T07:44:43;14.33;82.88
71304;DHT22;59091;47.446;19.148;2023-05-18T07:47:08;14.63;82.21
71304;DHT22;59091;47.446;19.148;2023-05-18T07:49:34;14.76;82.23
71304;DHT22;59091;47.446;19.148;2023-05-18T07:51:59;14.64;81.78
71304;DHT22;59091;47.446;19.148;2023-05-18T07:54:26;14.80;82.01
71304;DHT22;59091;47.446;19.148;2023-05-18T07:56:52;14.97;81.33
71304;DHT22;59091;47.446;19.148;2023-05-18T07:59:17;14.95;80.85
71304;DHT22;59091;47.446;19.148;2023-05-18T08:01:43;15.22;82.62
71304;DHT22;59091;47.446;19.148;2023-05-18T08:04:09;15.11;80.77
71304;DHT22;59091;47.446;19.148;2023-05-18T08:06:36;14.95;80.09
71304;DHT22;59091;47.446;19.148;2023-05-18T08:09:02;14.95;81.00
71304;DHT22;59091;47.446;19.148;2023-05-18T08:11:27;14.85;80.89
71304;DHT22;59091;47.446;19.148;2023-05-18T08:13:53;14.93;80.95
71304;DHT22;59091;47.446;19.148;2023-05-18T08:16:18;15.12;80.50
71304;DHT22;59091;47.446;19.148;2023-05-18T08:18:43;14.98;80.06
71304;DHT22;59091;47.446;19.148;2023-05-18T08:21:09;14.85;81.32
71304;DHT22;59091;47.446;19.148;2023-05-18T08:23:35;15.02;80.84
71304;DHT22;59091;47.446;19.148;2023-05-18T08:26:01;15.15;80.97
71304;DHT22;59091;47.446;19.148;2023-05-18T08:28:30;15.39;80.01
71304;DHT22;59091;47.446;19.148;2023-05-18T08:30:55;15.34;80.07
71304;DHT22;59091;47.446;19.148;2023-05-18T08:33:21;15.42;79.87
71304;DHT22;59091;47.446;19.148;2023-05-18T08:35:48;15.56;79.32
71304;DHT22;59091;47.446;19.148;2023-05-18T08:38:13;15.78;79.27
71304;DHT22;59091;47.446;19.148;2023-05-18T08:41:03;15.72;78.72
71304;DHT22;59091;47.446;19.148;2023-05-18T08:43:31;15.85;78.12
71304;DHT22;59091;47.446;19.148;2023-05-18T08:48:23;15.83;77.86
71304;DHT22;59091;47.446;19.148;2023-05-18T08:50:50;15.83;78.59
71304;DHT22;59091;47.446;19.148;2023-05-18T08:53:19;15.75;78.95
71304;DHT22;59091;47.446;19.148;2023-05-18T08:55:46;15.87;78.40
71304;DHT22;59091;47.446;19.148;2023-05-18T08:58:16;15.92;78.23
71304;DHT22;59091;47.446;19.148;2023-05-18T09:00:43;15.58;78.70
71304;DHT22;59091;47.446;19.148;2023-05-18T09:03:09;15.93;78.57
71304;DHT22;59091;47.446;19.148;2023-05-18T09:05:36;16.06;78.53
71304;DHT22;59091;47.446;19.148;2023-05-18T09:08:02;16.06;78.56
71304;DHT22;59091;47.446;19.148;2023-05-18T09:10:27;16.38;77.42
71304;DHT22;59091;47.446;19.148;2023-05-18T09:12:53;16.45;77.50
71304;DHT22;59091;47.446;19.148;2023-05-18T09:15:20;16.45;76.70
71304;DHT22;59091;47.446;19.148;2023-05-18T09:17:46;16.50;77.10
71304;DHT22;59091;47.446;19.148;2023-05-18T09:20:11;16.60;76.51
71304;DHT22;59091;47.446;19.148;2023-05-18T09:22:38;16.63;76.21
71304;DHT22;59091;47.446;19.148;2023-05-18T09:25:08;16.72;76.56
71304;DHT22;59091;47.446;19.148;2023-05-18T09:27:33;16.44;75.75
71304;DHT22;59091;47.446;19.148;2023-05-18T09:29:59;16.48;75.36
71304;DHT22;59091;47.446;19.148;2023-05-18T09:32:25;16.58;75.53
71304;DHT22;59091;47.446;19.148;2023-05-18T09:34:51;16.67;75.56
71304;DHT22;59091;47.446;19.148;2023-05-18T09:37:18;16.43;76.01
71304;DHT22;59091;47.446;19.148;2023-05-18T09:39:56;16.58;76.99
71304;DHT22;59091;47.446;19.148;2023-05-18T09:42:39;16.43;76.94
71304;DHT22;59091;47.446;19.148;2023-05-18T09:45:25;16.60;76.44
71304;DHT22;59091;47.446;19.148;2023-05-18T09:47:52;17.16;79.74
71304;DHT22;59091;47.446;19.148;2023-05-18T09:50:21;17.60;76.51
71304;DHT22;59091;47.446;19.148;2023-05-18T09:52:47;17.93;76.87
71304;DHT22;59091;47.446;19.148;2023-05-18T09:55:18;18.18;75.56
71304;DHT22;59091;47.446;19.148;2023-05-18T09:57:45;17.91;73.19
71304;DHT22;59091;47.446;19.148;2023-05-18T10:00:13;18.07;75.20
71304;DHT22;59091;47.446;19.148;2023-05-18T10:02:43;18.25;74.98
71304;DHT22;59091;47.446;19.148;2023-05-18T10:05:26;18.12;72.48
71304;DHT22;59091;47.446;19.148;2023-05-18T10:07:55;18.08;73.24
71304;DHT22;59091;47.446;19.148;2023-05-18T10:10:22;18.22;73.50
71304;DHT22;59091;47.446;19.148;2023-05-18T10:12:52;18.08;72.00
71304;DHT22;59091;47.446;19.148;2023-05-18T10:15:22;17.59;72.50
71304;DHT22;59091;47.446;19.148;2023-05-18T10:17:48;17.67;73.21
71304;DHT22;59091;47.446;19.148;2023-05-18T10:20:19;17.93;74.89
71304;DHT22;59091;47.446;19.148;2023-05-18T10:22:47;18.11;73.18
71304;DHT22;59091;47.446;19.148;2023-05-18T10:25:24;18.18;74.20
71304;DHT22;59091;47.446;19.148;2023-05-18T10:27:54;18.56;72.35
71304;DHT22;59091;47.446;19.148;2023-05-18T10:30:20;18.69;70.41
71304;DHT22;59091;47.446;19.148;2023-05-18T10:32:47;18.55;70.95
71304;DHT22;59091;47.446;19.148;2023-05-18T10:35:13;18.05;71.11
71304;DHT22;59091;47.446;19.148;2023-05-18T10:37:44;18.29;71.27
71304;DHT22;59091;47.446;19.148;2023-05-18T10:40:13;18.36;71.20
71304;DHT22;59091;47.446;19.148;2023-05-18T10:42:40;18.28;71.05
71304;DHT22;59091;47.446;19.148;2023-05-18T10:45:08;18.04;71.26
71304;DHT22;59091;47.446;19.148;2023-05-18T10:47:35;17.81;71.71
71304;DHT22;59091;47.446;19.148;2023-05-18T10:50:04;17.51;71.51
71304;DHT22;59091;47.446;19.148;2023-05-18T10:52:31;17.71;71.32
71304;DHT22;59091;47.446;19.148;2023-05-18T10:54:59;17.64;72.63
71304;DHT22;59091;47.446;19.148;2023-05-18T10:57:31;17.49;72.98
71304;DHT22;59091;47.446;19.148;2023-05-18T10:59:58;17.25;73.01
71304;DHT22;59091;47.446;19.148;2023-05-18T11:02:25;17.29;73.85
71304;DHT22;59091;47.446;19.148;2023-05-18T11:04:52;17.18;73.87
71304;DHT22;59091;47.446;19.148;2023-05-18T11:07:19;17.05;73.06
71304;DHT22;59091;47.446;19.148;2023-05-18T11:09:47;17.05;73.99
71304;DHT22;59091;47.446;19.148;2023-05-18T11:12:14;16.95;74.62
71304;DHT22;59091;47.446;19.148;2023-05-18T11:14:48;16.95;74.27
71304;DHT22;59091;47.446;19.148;2023-05-18T11:27:54;17.40;77.65
71304;DHT22;59091;47.446;19.148;2023-05-18T11:33:12;17.70;72.40
71304;DHT22;59091;47.446;19.148;2023-05-18T11:38:26;17.25;74.14
71304;DHT22;59091;47.446;19.148;2023-05-18T11:41:46;17.06;73.89
71304;DHT22;59091;47.446;19.148;2023-05-18T11:49:31;17.16;73.48
71304;DHT22;59091;47.446;19.148;2023-05-18T11:54:54;17.09;73.58
71304;DHT22;59091;47.446;19.148;2023-05-18T11:57:23;17.19;73.49
71304;DHT22;59091;47.446;19.148;2023-05-18T11:59:54;17.22;74.00
71304;DHT22;59091;47.446;19.148;2023-05-18T12:02:22;17.19;73.26
71304;DHT22;59091;47.446;19.148;2023-05-18T12:04:51;17.25;73.59
71304;DHT22;59091;47.446;19.148;2023-05-18T12:07:18;17.15;72.88
71304;DHT22;59091;47.446;19.148;2023-05-18T12:09:47;17.42;73.27
71304;DHT22;59091;47.446;19.148;2023-05-18T12:12:14;17.51;73.59
71304;DHT22;59091;47.446;19.148;2023-05-18T12:14:53;17.14;72.70
71304;DHT22;59091;47.446;19.148;2023-05-18T12:17:20;17.18;73.20
71304;DHT22;59091;47.446;19.148;2023-05-18T12:19:47;17.12;73.60
71304;DHT22;59091;47.446;19.148;2023-05-18T12:22:13;16.96;73.99
71304;DHT22;59091;47.446;19.148;2023-05-18T12:24:40;17.08;73.48
71304;DHT22;59091;47.446;19.148;2023-05-18T12:27:07;17.16;73.72
71304;DHT22;59091;47.446;19.148;2023-05-18T12:29:36;17.26;73.41
71304;DHT22;59091;47.446;19.148;2023-05-18T12:32:06;17.04;73.23
71304;DHT22;59091;47.446;19.148;2023-05-18T12:34:32;17.20;73.70
71304;DHT22;59091;47.446;19.148;2023-05-18T12:36:57;17.20;72.36
71304;DHT22;59091;47.446;19.148;2023-05-18T12:39:24;17.33;71.37
71304;DHT22;59091;47.446;19.148;2023-05-18T12:41:49;17.50;71.02
71304;DHT22;59091;47.446;19.148;2023-05-18T12:44:15;17.30;71.99
71304;DHT22;59091;47.446;19.148;2023-05-18T12:46:41;17.43;71.71
71304;DHT22;59091;47.446;19.148;2023-05-18T12:49:08;17.62;71.76
71304;DHT22;59091;47.446;19.148;2023-05-18T12:51:35;17.71;72.05
71304;DHT22;59091;47.446;19.148;2023-05-18T12:54:01;17.87;72.07
71304;DHT22;59091;47.446;19.148;2023-05-18T12:56:56;17.57;71.74
71304;DHT22;59091;47.446;19.148;2023-05-18T12:59:26;17.51;72.38
71304;DHT22;59091;47.446;19.148;2023-05-18T13:01:53;17.71;71.51
71304;DHT22;59091;47.446;19.148;2023-05-18T13:04:19;17.91;71.47
71304;DHT22;59091;47.446;19.148;2023-05-18T13:06:44;17.93;71.11
71304;DHT22;59091;47.446;19.148;2023-05-18T13:09:14;17.96;71.05
71304;DHT22;59091;47.446;19.148;2023-05-18T13:11:40;18.08;70.69
71304;DHT22;59091;47.446;19.148;2023-05-18T13:14:08;18.12;69.84
71304;DHT22;59091;47.446;19.148;2023-05-18T13:16:37;18.32;69.98
71304;DHT22;59091;47.446;19.148;2023-05-18T13:19:08;18.22;68.25
71304;DHT22;59091;47.446;19.148;2023-05-18T13:21:33;18.34;68.22
71304;DHT22;59091;47.446;19.148;2023-05-18T13:24:00;18.29;68.28
71304;DHT22;59091;47.446;19.148;2023-05-18T13:26:25;18.00;68.61
71304;DHT22;59091;47.446;19.148;2023-05-18T13:28:53;17.96;68.80
71304;DHT22;59091;47.446;19.148;2023-05-18T13:31:19;17.91;69.52
71304;DHT22;59091;47.446;19.148;2023-05-18T13:33:45;17.96;69.79
71304;DHT22;59091;47.446;19.148;2023-05-18T13:36:11;17.84;70.03
71304;DHT22;59091;47.446;19.148;2023-05-18T13:38:37;17.90;69.82
71304;DHT22;59091;47.446;19.148;2023-05-18T13:41:03;18.14;70.12
71304;DHT22;59091;47.446;19.148;2023-05-18T13:43:30;18.24;69.82
71304;DHT22;59091;47.446;19.148;2023-05-18T13:45:56;18.32;69.23
71304;DHT22;59091;47.446;19.148;2023-05-18T13:48:21;18.09;69.19
71304;DHT22;59091;47.446;19.148;2023-05-18T13:50:47;18.14;69.08
71304;DHT22;59091;47.446;19.148;2023-05-18T13:53:12;18.09;68.65
71304;DHT22;59091;47.446;19.148;2023-05-18T13:55:38;18.00;69.07
71304;DHT22;59091;47.446;19.148;2023-05-18T13:58:03;18.04;69.36
71304;DHT22;59091;47.446;19.148;2023-05-18T14:00:28;17.84;69.92
71304;DHT22;59091;47.446;19.148;2023-05-18T14:02:57;17.93;69.28
71304;DHT22;59091;47.446;19.148;2023-05-18T14:05:23;17.88;68.87
71304;DHT22;59091;47.446;19.148;2023-05-18T14:07:48;18.04;68.55
71304;DHT22;59091;47.446;19.148;2023-05-18T14:10:16;18.01;68.98
71304;DHT22;59091;47.446;19.148;2023-05-18T14:12:42;17.81;68.98
71304;DHT22;59091;47.446;19.148;2023-05-18T14:15:08;17.80;68.46
71304;DHT22;59091;47.446;19.148;2023-05-18T14:17:34;17.83;68.86
71304;DHT22;59091;47.446;19.148;2023-05-18T14:20:00;17.81;69.84
71304;DHT22;59091;47.446;19.148;2023-05-18T14:22:25;17.80;70.07
71304;DHT22;59091;47.446;19.148;2023-05-18T14:24:52;17.76;70.64
71304;DHT22;59091;47.446;19.148;2023-05-18T14:27:17;17.42;70.80
71304;DHT22;59091;47.446;19.148;2023-05-18T14:29:45;17.30;71.94
71304;DHT22;59091;47.446;19.148;2023-05-18T14:32:10;17.18;72.76
71304;DHT22;59091;47.446;19.148;2023-05-18T14:34:35;17.25;72.50
71304;DHT22;59091;47.446;19.148;2023-05-18T14:37:01;17.14;72.84
71304;DHT22;59091;47.446;19.148;2023-05-18T14:39:26;17.09;72.49
71304;DHT22;59091;47.446;19.148;2023-05-18T14:41:52;17.20;72.78
71304;DHT22;59091;47.446;19.148;2023-05-18T14:44:17;17.16;72.72
71304;DHT22;59091;47.446;19.148;2023-05-18T14:46:43;17.12;71.87
71304;DHT22;59091;47.446;19.148;2023-05-18T14:49:08;16.92;72.26
71304;DHT22;59091;47.446;19.148;2023-05-18T14:51:34;16.81;74.59
71304;DHT22;59091;47.446;19.148;2023-05-18T14:53:59;17.19;76.07
71304;DHT22;59091;47.446;19.148;2023-05-18T14:56:26;17.12;72.41
71304;DHT22;59091;47.446;19.148;2023-05-18T14:58:52;17.19;72.20
71304;DHT22;59091;47.446;19.148;2023-05-18T15:01:18;17.05;72.40
71304;DHT22;59091;47.446;19.148;2023-05-18T15:03:43;16.99;72.90
71304;DHT22;59091;47.446;19.148;2023-05-18T15:06:08;16.85;73.16
71304;DHT22;59091;47.446;19.148;2023-05-18T15:08:34;17.04;72.95
71304;DHT22;59091;47.446;19.148;2023-05-18T15:10:59;17.12;72.74
71304;DHT22;59091;47.446;19.148;2023-05-18T15:13:25;17.29;72.36
71304;DHT22;59091;47.446;19.148;2023-05-18T15:15:50;17.36;72.30
71304;DHT22;59091;47.446;19.148;2023-05-18T15:18:16;17.30;72.37
71304;DHT22;59091;47.446;19.148;2023-05-18T15:20:41;17.36;72.60
71304;DHT22;59091;47.446;19.148;2023-05-18T15:23:08;17.36;72.03
71304;DHT22;59091;47.446;19.148;2023-05-18T15:25:34;17.37;71.77
71304;DHT22;59091;47.446;19.148;2023-05-18T15:28:00;17.33;71.62
71304;DHT22;59091;47.446;19.148;2023-05-18T15:30:26;17.25;72.07
71304;DHT22;59091;47.446;19.148;2023-05-18T15:32:54;17.23;71.93
71304;DHT22;59091;47.446;19.148;2023-05-18T15:35:20;17.14;72.12
71304;DHT22;59091;47.446;19.148;2023-05-18T15:37:46;17.08;72.51
71304;DHT22;59091;47.446;19.148;2023-05-18T15:40:12;17.04;72.78
71304;DHT22;59091;47.446;19.148;2023-05-18T15:42:38;17.11;73.85
71304;DHT22;59091;47.446;19.148;2023-05-18T15:45:04;17.12;73.52
71304;DHT22;59091;47.446;19.148;2023-05-18T15:47:29;16.94;73.98
71304;DHT22;59091;47.446;19.148;2023-05-18T15:49:55;16.78;74.16
71304;DHT22;59091;47.446;19.148;2023-05-18T15:52:20;16.72;74.33